createdAt,value
2019-04-11T00:02:25.458Z,62.43
2019-04-11T00:04:52.699Z,62.78
2019-04-11T00:07:19.003Z,62.83
2019-04-11T00:09:47.795Z,63.10
2019-04-11T00:12:19.318Z,63.19
2019-04-11T00:14:48.354Z,63.24
2019-04-11T00:17:17.430Z,63.92
2019-04-11T00:19:53.742Z,63.76
2019-04-11T00:22:19.467Z,63.80
2019-04-11T00:24:53.207Z,64.21
2019-04-11T00:27:25.290Z,64.13
2019-04-11T00:29:57.868Z,64.24
2019-04-11T00:32:25.332Z,64.30
2019-04-11T00:34:51.587Z,64.05
2019-04-11T00:37:19.010Z,64.12
2019-04-11T00:39:47.843Z,63.99
2019-04-11T00:42:14.593Z,64.27
2019-04-11T00:44:47.996Z,63.99
2019-04-11T00:47:13.050Z,64.05
2019-04-11T00:49:44.103Z,64.15
2019-04-11T00:52:16.255Z,63.84
2019-04-11T00:54:44.330Z,63.89
2019-04-11T00:57:10.698Z,64.16
2019-04-11T00:59:44.675Z,64.06
2019-04-11T01:02:09.391Z,64.77
2019-04-11T01:04:45.348Z,64.63
2019-04-11T01:07:11.314Z,64.45
2019-04-11T01:09:37.484Z,64.29
2019-04-11T01:12:04.633Z,64.67
2019-04-11T01:15:17.875Z,64.29
2019-04-11T01:16:59.182Z,64.70
2019-04-11T01:19:27.536Z,64.54
2019-04-11T01:21:53.667Z,64.39
2019-04-11T01:24:22.408Z,64.25
2019-04-11T01:26:51.777Z,64.27
2019-04-11T01:29:19.561Z,64.52
2019-04-11T01:31:47.826Z,64.23
2019-04-11T01:34:20.240Z,64.16
2019-04-11T01:36:49.436Z,64.54
2019-04-11T01:39:21.842Z,64.31
2019-04-11T01:41:48.866Z,64.74
2019-04-11T01:44:22.743Z,64.62
2019-04-11T01:46:46.491Z,64.69
2019-04-11T01:49:18.480Z,64.99
2019-04-11T01:51:45.550Z,65.18
2019-04-11T01:54:13.572Z,65.24
2019-04-11T01:56:41.093Z,65.35
2019-04-11T01:59:07.995Z,65.38
2019-04-11T02:01:54.885Z,65.50
2019-04-11T02:04:26.131Z,65.51
2019-04-11T02:06:54.485Z,65.55
2019-04-11T02:09:22.023Z,65.63
2019-04-11T02:11:50.187Z,65.80
2019-04-11T02:14:21.468Z,65.86
2019-04-11T02:16:55.685Z,66.09
2019-04-11T02:19:28.609Z,65.96
2019-04-11T02:21:58.556Z,65.86
2019-04-11T02:24:37.672Z,65.71
2019-04-11T02:27:21.170Z,65.49
2019-04-11T02:29:48.881Z,65.65
2019-04-11T02:32:15.764Z,65.55
2019-04-11T02:34:43.909Z,65.65
2019-04-11T02:37:10.336Z,65.73
2019-04-11T02:39:38.494Z,65.81
2019-04-11T02:42:06.348Z,65.84
2019-04-11T02:44:50.930Z,65.96
2019-04-11T02:47:09.848Z,66.14
2019-04-11T02:49:39.349Z,66.12
2019-04-11T02:52:02.961Z,66.15
2019-04-11T02:54:33.863Z,66.15
2019-04-11T02:57:03.606Z,66.23
2019-04-11T02:59:30.516Z,66.39
2019-04-11T03:02:00.463Z,66.33
2019-04-11T03:04:31.142Z,66.28
2019-04-11T03:06:59.854Z,66.44
2019-04-11T03:09:51.049Z,66.49
2019-04-11T03:11:58.936Z,66.44
2019-04-11T03:14:27.734Z,66.60
2019-04-11T03:17:03.649Z,66.77
2019-04-11T03:19:37.562Z,67.20
2019-04-11T03:21:54.303Z,67.02
2019-04-11T03:24:24.452Z,67.29
2019-04-11T03:26:56.552Z,67.37
2019-04-11T03:29:30.903Z,67.73
2019-04-11T03:39:48.760Z,67.64
2019-04-11T03:42:10.953Z,67.33
2019-04-11T03:44:28.612Z,67.18
2019-04-11T03:47:08.415Z,67.15
2019-04-11T03:49:31.735Z,67.17
2019-04-11T03:51:50.735Z,67.29
2019-04-11T03:54:17.999Z,67.35
2019-04-11T04:00:21.607Z,67.43
2019-04-11T04:03:09.048Z,67.39
2019-04-11T04:08:44.464Z,67.34
2019-04-11T04:11:22.168Z,67.57
2019-04-11T04:14:24.978Z,67.61
2019-04-11T04:17:32.981Z,67.72
2019-04-11T04:20:08.759Z,67.42
2019-04-11T04:23:03.177Z,67.42
2019-04-11T04:29:02.145Z,67.79
2019-04-11T04:31:30.633Z,67.99
2019-04-11T04:33:57.737Z,68.22
2019-04-11T04:36:26.744Z,68.12
2019-04-11T04:38:54.560Z,68.49
2019-04-11T04:41:35.127Z,68.44
2019-04-11T04:43:54.695Z,68.57
2019-04-11T04:46:34.853Z,68.53
2019-04-11T04:48:51.294Z,68.62
2019-04-11T04:51:18.339Z,68.61
2019-04-11T04:53:57.728Z,68.40
2019-04-11T04:56:20.244Z,68.55
2019-04-11T04:58:44.369Z,68.42
2019-04-11T05:01:12.515Z,69.00
2019-04-11T05:03:40.436Z,68.68
2019-04-11T05:06:07.709Z,68.47
2019-04-11T05:08:34.761Z,68.40
2019-04-11T05:11:02.181Z,68.16
2019-04-11T05:13:30.019Z,68.53
2019-04-11T05:16:06.865Z,68.62
2019-04-11T05:18:25.657Z,68.76
2019-04-11T05:20:52.734Z,68.94
2019-04-11T05:23:18.927Z,69.19
2019-04-11T05:25:45.204Z,69.18
2019-04-11T05:28:12.041Z,69.42
2019-04-11T05:30:39.835Z,69.09
2019-04-11T05:33:06.104Z,69.35
2019-04-11T05:35:33.006Z,69.30
2019-04-11T05:38:00.394Z,69.14
2019-04-11T05:40:26.481Z,68.85
2019-04-11T05:42:54.134Z,69.31
2019-04-11T05:45:22.572Z,68.89
2019-04-11T05:47:50.917Z,68.64
2019-04-11T05:50:22.164Z,69.05
2019-04-11T05:52:48.399Z,68.88
2019-04-11T05:55:15.519Z,69.17
2019-04-11T05:57:44.769Z,69.23
2019-04-11T06:00:30.951Z,69.52
2019-04-11T06:02:59.669Z,68.94
2019-04-11T06:05:35.481Z,69.36
2019-04-11T06:08:05.445Z,69.35
2019-04-11T06:10:33.871Z,69.44
2019-04-11T06:13:12.066Z,69.30
2019-04-11T06:15:45.813Z,69.63
2019-04-11T06:18:26.224Z,69.68
2019-04-11T06:20:45.002Z,69.59
2019-04-11T06:23:31.827Z,69.37
2019-04-11T06:26:10.458Z,69.59
2019-04-11T06:28:39.135Z,69.49
2019-04-11T06:31:13.775Z,69.27
2019-04-11T06:33:42.858Z,68.87
2019-04-11T06:36:21.005Z,69.13
2019-04-11T06:38:51.998Z,69.07
2019-04-11T06:41:26.328Z,68.63
2019-04-11T06:44:04.703Z,68.63
2019-04-11T06:46:55.788Z,68.86
2019-04-11T06:49:27.060Z,68.39
2019-04-11T06:51:55.164Z,68.33
2019-04-11T06:54:23.376Z,68.24
2019-04-11T06:56:52.099Z,68.15
2019-04-11T06:59:20.640Z,68.00
2019-04-11T07:01:47.576Z,68.11
2019-04-11T07:04:15.668Z,68.76
2019-04-11T07:06:43.930Z,68.70
2019-04-11T07:09:17.632Z,68.56
2019-04-11T07:11:48.573Z,68.53
2019-04-11T07:14:16.654Z,68.43
2019-04-11T07:17:06.900Z,68.15
2019-04-11T07:19:33.800Z,68.01
2019-04-11T07:22:00.298Z,67.82
2019-04-11T07:24:28.337Z,68.00
2019-04-11T07:26:56.466Z,67.89
2019-04-11T07:29:27.286Z,67.71
2019-04-11T07:32:09.385Z,67.50
2019-04-11T07:34:39.669Z,67.75
2019-04-11T07:37:25.994Z,67.40
2019-04-11T07:39:58.473Z,67.14
2019-04-11T07:42:26.667Z,66.52
2019-04-11T07:44:57.689Z,66.44
2019-04-11T07:47:29.468Z,65.81
2019-04-11T07:49:58.209Z,65.66
2019-04-11T07:52:25.226Z,65.16
2019-04-11T07:54:51.490Z,65.18
2019-04-11T07:57:31.834Z,64.89
2019-04-11T08:00:03.765Z,64.51
2019-04-11T08:02:38.154Z,64.07
2019-04-11T08:05:11.080Z,63.45
2019-04-11T08:07:51.866Z,63.38
2019-04-11T08:10:25.901Z,62.40
2019-04-11T08:12:54.110Z,62.53
2019-04-11T08:15:29.337Z,61.60
2019-04-11T08:17:57.541Z,61.09
2019-04-11T08:20:42.288Z,60.55
2019-04-11T08:23:09.720Z,60.15
2019-04-11T08:25:47.386Z,59.91
2019-04-11T08:28:14.628Z,59.17
2019-04-11T08:30:55.190Z,58.08
2019-04-11T08:33:24.549Z,57.69
2019-04-11T08:35:57.165Z,57.15
2019-04-11T08:38:26.597Z,56.72
2019-04-11T08:40:55.487Z,56.55
2019-04-11T08:43:29.578Z,56.03
2019-04-11T08:46:06.881Z,55.86
2019-04-11T08:48:35.208Z,54.89
2019-04-11T08:51:12.525Z,54.35
2019-04-11T08:53:44.713Z,54.06
2019-04-11T08:56:12.880Z,54.12
2019-04-11T08:58:53.140Z,54.65
2019-04-11T09:01:20.735Z,53.93
2019-04-11T09:04:09.218Z,52.86
2019-04-11T09:06:34.847Z,52.84
2019-04-11T09:09:18.807Z,52.68
2019-04-11T09:11:48.829Z,52.31
2019-04-11T09:14:20.029Z,52.14
2019-04-11T09:16:58.234Z,52.18
2019-04-11T09:19:27.254Z,51.37
2019-04-11T09:22:11.000Z,51.12
2019-04-11T09:24:43.134Z,51.00
2019-04-11T09:27:24.792Z,50.42
2019-04-11T09:30:02.555Z,50.42
2019-04-11T09:32:33.765Z,50.14
2019-04-11T09:35:02.066Z,50.13
2019-04-11T09:37:29.547Z,50.07
2019-04-11T09:39:58.049Z,49.86
2019-04-11T09:42:43.120Z,49.05
2019-04-11T09:45:29.816Z,48.64
2019-04-11T09:48:08.367Z,48.94
2019-04-11T09:50:36.645Z,48.60
2019-04-11T09:53:03.628Z,48.29
2019-04-11T09:55:37.770Z,48.16
2019-04-11T09:58:03.939Z,48.12
2019-04-11T10:00:34.958Z,47.87
2019-04-11T10:03:03.005Z,47.92
2019-04-11T10:05:32.024Z,47.92
2019-04-11T10:08:00.135Z,48.00
2019-04-11T10:10:28.912Z,48.08
2019-04-11T10:13:13.952Z,47.73
2019-04-11T10:15:43.180Z,47.48
2019-04-11T10:18:26.046Z,46.94
2019-04-11T10:20:50.856Z,46.80
2019-04-11T10:23:36.721Z,46.63
2019-04-11T10:26:03.597Z,46.71
2019-04-11T10:28:40.334Z,46.80
2019-04-11T10:31:08.575Z,46.50
2019-04-11T10:33:42.827Z,46.91
2019-04-11T10:36:10.922Z,46.55
2019-04-11T10:38:38.970Z,46.24
2019-04-11T10:41:25.228Z,45.84
2019-04-11T10:44:05.565Z,46.30
2019-04-11T10:50:25.730Z,46.38
2019-04-11T10:52:55.071Z,46.73
2019-04-11T10:55:39.877Z,46.19
2019-04-11T10:58:20.629Z,45.85
2019-04-11T11:00:48.849Z,46.08
2019-04-11T11:03:27.358Z,45.96
2019-04-11T11:06:01.466Z,45.68
2019-04-11T11:08:45.976Z,45.64
2019-04-11T11:11:20.549Z,45.24
2019-04-11T11:13:54.513Z,43.87
2019-04-11T11:16:30.570Z,43.62
2019-04-11T11:19:34.623Z,43.21
2019-04-11T11:21:47.322Z,42.52
2019-04-11T11:24:33.860Z,41.87
2019-04-11T11:27:02.953Z,41.60
2019-04-11T11:29:30.077Z,41.03
2019-04-11T11:31:58.143Z,41.68
2019-04-11T11:34:30.437Z,41.57
2019-04-11T11:37:15.837Z,41.74
2019-04-11T11:40:02.722Z,41.66
2019-04-11T11:42:42.789Z,39.57
2019-04-11T11:45:23.617Z,36.82
2019-04-11T11:48:13.652Z,38.47
2019-04-11T11:50:36.545Z,38.26
2019-04-11T11:53:19.125Z,38.11
2019-04-11T11:55:46.225Z,36.58
2019-04-11T11:58:31.118Z,34.32
2019-04-11T12:01:03.666Z,33.20
2019-04-11T12:03:40.506Z,32.95
2019-04-11T12:06:09.767Z,33.49
2019-04-11T12:08:46.659Z,33.98
2019-04-11T12:11:13.720Z,34.30
2019-04-11T12:13:41.795Z,34.66
2019-04-11T12:16:19.063Z,34.81
2019-04-11T12:19:00.943Z,33.94
2019-04-11T12:21:32.112Z,33.43
2019-04-11T12:24:04.298Z,31.13
2019-04-11T12:26:33.317Z,29.10
2019-04-11T12:29:14.298Z,27.25
2019-04-11T12:31:44.014Z,26.68
2019-04-11T12:34:27.656Z,26.26
2019-04-11T12:36:54.694Z,26.45
2019-04-11T12:39:35.864Z,27.07
2019-04-11T12:42:06.824Z,27.89
2019-04-11T12:44:45.838Z,27.22
2019-04-11T12:47:30.798Z,26.16
2019-04-11T12:50:07.903Z,25.80
2019-04-11T12:52:36.062Z,25.74
2019-04-11T12:55:25.380Z,25.01
2019-04-11T12:58:10.314Z,23.44
2019-04-11T13:00:38.679Z,24.83
2019-04-11T13:03:09.988Z,25.12
2019-04-11T13:08:09.338Z,23.86
2019-04-11T13:10:36.557Z,23.34
2019-04-11T13:13:24.860Z,23.99
2019-04-11T13:15:54.629Z,24.00
2019-04-11T13:18:25.617Z,24.36
2019-04-11T13:20:56.310Z,24.23
2019-04-11T13:23:27.461Z,23.86
2019-04-11T13:26:12.219Z,24.34
2019-04-11T13:28:40.181Z,25.05
2019-04-11T13:31:24.832Z,26.58
2019-04-11T13:33:52.970Z,27.64
2019-04-11T13:36:33.003Z,26.54
2019-04-11T13:39:02.470Z,25.35
2019-04-11T13:41:32.161Z,24.32
2019-04-11T13:43:58.951Z,24.22
2019-04-11T13:46:36.148Z,24.37
2019-04-11T13:49:19.702Z,24.97
2019-04-11T13:52:04.542Z,25.81
2019-04-11T13:54:41.334Z,26.54
2019-04-11T13:57:24.522Z,26.94
2019-04-11T14:00:09.544Z,25.81
2019-04-11T14:02:54.704Z,25.66
2019-04-11T14:05:22.026Z,24.56
2019-04-11T14:07:49.301Z,24.66
2019-04-11T14:10:18.882Z,24.88
2019-04-11T14:12:45.759Z,24.86
2019-04-11T14:15:26.429Z,26.11
2019-04-11T14:17:54.615Z,26.69
2019-04-11T14:20:29.712Z,26.46
2019-04-11T14:23:04.436Z,26.67
2019-04-11T14:25:42.225Z,26.97
2019-04-11T14:28:10.257Z,27.69
2019-04-11T14:30:53.488Z,28.22
2019-04-11T14:33:23.588Z,28.70
2019-04-11T14:35:53.010Z,28.79
2019-04-11T14:38:21.167Z,29.17
2019-04-11T14:41:04.898Z,29.14
2019-04-11T14:43:43.749Z,29.91
2019-04-11T14:46:28.915Z,30.49
2019-04-11T14:48:56.382Z,31.07
2019-04-11T14:51:27.488Z,31.71
2019-04-11T14:54:17.080Z,32.37
2019-04-11T14:56:55.897Z,33.05
2019-04-11T14:59:24.955Z,33.78
2019-04-11T15:01:53.558Z,33.57
2019-04-11T15:04:38.287Z,33.82
2019-04-11T15:07:05.374Z,34.45
2019-04-11T15:09:50.279Z,34.64
2019-04-11T15:12:18.448Z,34.63
2019-04-11T15:14:48.537Z,34.92
2019-04-11T15:17:16.473Z,35.30
2019-04-11T15:19:44.537Z,34.93
2019-04-11T15:22:21.824Z,34.64
2019-04-11T15:24:49.896Z,34.50
2019-04-11T15:27:23.660Z,34.67
2019-04-11T15:29:49.840Z,34.80
2019-04-11T15:32:27.274Z,35.20
2019-04-11T15:34:53.997Z,35.34
2019-04-11T15:37:22.561Z,35.74
2019-04-11T15:39:53.483Z,36.13
2019-04-11T15:42:27.671Z,36.53
2019-04-11T15:45:14.062Z,37.01
2019-04-11T15:47:59.017Z,37.41
2019-04-11T15:50:43.653Z,37.80
2019-04-11T15:53:11.639Z,38.18
2019-04-11T15:55:42.855Z,38.33
2019-04-11T15:58:12.663Z,38.96
2019-04-11T16:00:48.709Z,39.80
2019-04-11T16:03:15.041Z,39.89
2019-04-11T16:05:49.259Z,40.48
2019-04-11T16:08:19.117Z,40.27
2019-04-11T16:10:47.258Z,40.92
2019-04-11T16:13:15.289Z,41.35
2019-04-11T16:15:43.435Z,41.48
2019-04-11T16:18:28.290Z,41.42
2019-04-11T16:21:18.346Z,41.74
2019-04-11T16:23:45.981Z,41.76
2019-04-11T16:26:14.173Z,42.08
2019-04-11T16:28:45.264Z,42.14
2019-04-11T16:31:11.530Z,42.10
2019-04-11T16:33:46.892Z,42.40
2019-04-11T16:36:18.054Z,42.32
2019-04-11T16:38:49.684Z,42.78
2019-04-11T16:41:25.038Z,42.72
2019-04-11T16:44:10.040Z,42.76
2019-04-11T16:46:38.116Z,42.98
2019-04-11T16:49:04.526Z,43.09
2019-04-11T16:51:31.428Z,43.43
2019-04-11T16:53:58.067Z,43.66
2019-04-11T16:56:24.316Z,44.05
2019-04-11T16:58:50.530Z,44.53
2019-04-11T17:01:16.927Z,44.74
2019-04-11T17:03:44.089Z,44.95
2019-04-11T17:06:12.494Z,45.30
2019-04-11T17:08:46.574Z,45.36
2019-04-11T17:11:14.715Z,45.56
2019-04-11T17:13:41.223Z,45.57
2019-04-11T17:16:09.542Z,45.44
2019-04-11T17:18:35.896Z,45.48
2019-04-11T17:21:02.294Z,45.71
2019-04-11T17:23:28.915Z,45.89
2019-04-11T17:25:55.239Z,46.04
2019-04-11T17:28:23.052Z,46.21
2019-04-11T17:30:49.738Z,46.37
2019-04-11T17:33:17.159Z,46.39
2019-04-11T17:35:43.659Z,46.71
2019-04-11T17:38:10.066Z,46.71
2019-04-11T17:40:39.426Z,46.82
2019-04-11T17:43:04.628Z,46.97
2019-04-11T17:45:31.454Z,47.00
2019-04-11T17:47:59.275Z,47.11
2019-04-11T17:50:25.662Z,47.18
2019-04-11T17:52:54.404Z,47.44
2019-04-11T17:55:23.612Z,47.78
2019-04-11T17:57:48.426Z,47.84
2019-04-11T18:00:17.275Z,47.98
2019-04-11T18:02:46.278Z,48.21
2019-04-11T18:05:16.697Z,48.03
2019-04-11T18:07:41.541Z,48.04
2019-04-11T18:10:08.329Z,48.14
2019-04-11T18:12:34.625Z,48.38
2019-04-11T18:15:02.327Z,48.46
2019-04-11T18:17:29.593Z,48.49
2019-04-11T18:19:55.885Z,48.56
2019-04-11T18:22:22.166Z,48.81
2019-04-11T18:24:50.207Z,48.94
2019-04-11T18:27:17.096Z,48.79
2019-04-11T18:29:43.353Z,49.09
2019-04-11T18:32:09.721Z,49.26
2019-04-11T18:34:36.113Z,49.41
2019-04-11T18:37:02.738Z,49.59
2019-04-11T18:39:28.859Z,49.43
2019-04-11T18:41:57.555Z,49.57
2019-04-11T18:44:23.115Z,49.77
2019-04-11T18:46:49.370Z,49.84
2019-04-11T18:49:15.572Z,49.97
2019-04-11T18:51:41.889Z,50.05
2019-04-11T18:54:08.104Z,50.21
2019-04-11T18:56:34.399Z,50.38
2019-04-11T18:59:03.449Z,50.49
2019-04-11T19:01:29.021Z,50.64
2019-04-11T19:03:55.216Z,50.73
2019-04-11T19:06:27.749Z,50.77
2019-04-11T19:08:49.691Z,50.77
2019-04-11T19:11:16.363Z,50.70
2019-04-11T19:13:46.737Z,50.83
2019-04-11T19:16:10.973Z,50.89
2019-04-11T19:18:39.409Z,50.57
2019-04-11T19:21:05.763Z,50.56
2019-04-11T19:23:32.009Z,50.64
2019-04-11T19:25:58.234Z,50.64
2019-04-11T19:28:25.214Z,50.74
2019-04-11T19:30:54.024Z,50.98
2019-04-11T19:33:20.224Z,51.22
2019-04-11T19:35:46.560Z,51.20
2019-04-11T19:38:26.195Z,51.28
2019-04-11T19:40:52.620Z,51.38
2019-04-11T19:43:19.641Z,51.55
2019-04-11T19:45:49.837Z,51.67
2019-04-11T19:48:14.102Z,51.77
2019-04-11T19:50:40.368Z,51.86
2019-04-11T19:53:07.545Z,51.70
2019-04-11T19:55:47.690Z,51.81
2019-04-11T19:58:15.625Z,51.87
2019-04-11T20:00:42.000Z,51.56
2019-04-11T20:03:08.959Z,51.72
2019-04-11T20:05:35.678Z,51.67
2019-04-11T20:08:01.958Z,51.85
2019-04-11T20:10:30.611Z,51.96
2019-04-11T20:12:56.343Z,52.24
2019-04-11T20:15:22.610Z,52.25
2019-04-11T20:17:52.029Z,52.42
2019-04-11T20:20:17.024Z,52.61
2019-04-11T20:22:43.238Z,52.99
2019-04-11T20:25:09.622Z,52.77
2019-04-11T20:27:36.076Z,52.66
2019-04-11T20:30:04.818Z,52.82
2019-04-11T20:32:33.160Z,52.81
2019-04-11T20:34:59.653Z,52.81
2019-04-11T20:37:26.070Z,53.00
2019-04-11T20:39:52.375Z,52.96
2019-04-11T20:42:23.793Z,53.04
2019-04-11T20:44:49.487Z,53.50
2019-04-11T20:47:16.891Z,53.35
2019-04-11T20:49:47.852Z,53.49
2019-04-11T20:52:14.358Z,53.61
2019-04-11T20:54:40.633Z,53.74
2019-04-11T20:57:06.944Z,53.82
2019-04-11T20:59:34.877Z,53.81
2019-04-11T21:02:01.430Z,53.85
2019-04-11T21:04:27.762Z,53.93
2019-04-11T21:06:54.035Z,54.15
2019-04-11T21:09:20.249Z,54.17
2019-04-11T21:11:46.421Z,54.23
2019-04-11T21:14:12.633Z,54.24
2019-04-11T21:16:38.810Z,54.15
2019-04-11T21:19:05.066Z,54.15
2019-04-11T21:21:31.284Z,54.19
2019-04-11T21:23:57.941Z,54.25
2019-04-11T21:26:28.745Z,54.40
2019-04-11T21:28:53.836Z,54.48
2019-04-11T21:31:20.111Z,54.33
2019-04-11T21:33:47.285Z,54.26
2019-04-11T21:36:13.494Z,54.51
2019-04-11T21:38:39.658Z,54.43
2019-04-11T21:41:06.670Z,54.46
2019-04-11T21:43:35.936Z,54.48
2019-04-11T21:46:01.235Z,54.39
2019-04-11T21:48:27.352Z,54.41
2019-04-11T21:50:53.706Z,54.42
2019-04-11T21:53:19.809Z,54.51
2019-04-11T21:55:47.695Z,54.61
2019-04-11T21:58:14.195Z,54.71
2019-04-11T22:00:44.823Z,55.00
2019-04-11T22:03:12.950Z,54.89
2019-04-11T22:05:39.353Z,54.94
2019-04-11T22:08:05.550Z,55.10
2019-04-11T22:10:31.964Z,55.46
2019-04-11T22:12:58.343Z,55.39
2019-04-11T22:15:24.547Z,55.38
2019-04-11T22:17:50.660Z,55.59
2019-04-11T22:20:17.418Z,55.54
2019-04-11T22:22:43.731Z,55.48
2019-04-11T22:25:10.068Z,55.45
2019-04-11T22:27:36.164Z,55.64
2019-04-11T22:30:05.948Z,55.81
2019-04-11T22:32:32.142Z,55.75
2019-04-11T22:34:59.208Z,55.68
2019-04-11T22:37:27.735Z,55.86
2019-04-11T22:39:54.270Z,56.02
2019-04-11T22:42:20.482Z,55.92
2019-04-11T22:44:46.665Z,56.00
2019-04-11T22:47:12.944Z,56.36
2019-04-11T22:49:39.954Z,56.74
2019-04-11T22:52:06.518Z,56.46
2019-04-11T22:54:32.677Z,56.69
2019-04-11T22:56:59.025Z,56.30
2019-04-11T22:59:25.232Z,56.65
2019-04-11T23:01:53.166Z,56.47
2019-04-11T23:04:19.310Z,56.42
2019-04-11T23:06:47.118Z,56.28
2019-04-11T23:09:13.757Z,56.37
2019-04-11T23:11:39.979Z,56.50
2019-04-11T23:14:06.061Z,56.33
2019-04-11T23:16:32.280Z,56.05
2019-04-11T23:18:59.425Z,56.56
2019-04-11T23:21:25.635Z,56.56
2019-04-11T23:23:51.785Z,56.66
2019-04-11T23:26:18.009Z,56.96
2019-04-11T23:28:46.906Z,57.11
2019-04-11T23:31:13.592Z,57.51
2019-04-11T23:33:39.735Z,57.56
2019-04-11T23:36:05.999Z,57.57
2019-04-11T23:38:32.357Z,57.78
2019-04-11T23:40:58.534Z,57.83
2019-04-11T23:43:24.804Z,58.28
2019-04-11T23:45:51.736Z,58.29
2019-04-11T23:48:18.037Z,58.24
2019-04-11T23:50:44.314Z,58.46
2019-04-11T23:53:10.425Z,58.47
2019-04-11T23:55:36.641Z,58.51
2019-04-11T23:58:02.896Z,58.52
